Time;durP1;ratioP1;P1;durP2;ratioP2;P2;SDS_P1;SDS_P2;PMS_P1;PMS_P2;Temp;Humidity;BMP_temperature;BMP_pressure;BME280_temperature;BME280_humidity;BME280_pressure;Samples;Min_cycle;Max_cycle;Signal;HPM_P1;HPM_P2
2023/04/22 00:01:59;;;;;;;;;;;;;;;;;;;;;
2023/04/22 00:05:12;;;;;;;16.30;9.10;;;;;;;5.78;71.06;100577.67;105632;1251;73840;-58
2023/04/22 00:08:31;;;;;;;15.50;9.30;;;;;;;5.73;70.93;100574.98;105782;1254;69153;-57
2023/04/22 00:11:28;;;;;;;17.20;10.20;;;;;;;5.71;71.12;100572.05;105678;1254;69182;-52
2023/04/22 00:14:22;;;;;;;16.80;10.00;;;;;;;5.68;71.09;100563.42;105711;1254;74871;-55
2023/04/22 00:17:34;;;;;;;16.10;9.70;;;;;;;5.65;71.15;100558.43;105699;1253;83680;-59
2023/04/22 00:20:39;;;;;;;15.20;9.90;;;;;;;5.64;71.44;100556.55;105696;1251;73626;-56
2023/04/22 00:23:26;;;;;;;14.20;9.90;;;;;;;5.57;71.36;100557.33;105624;1254;69538;-55
2023/04/22 00:26:35;;;;;;;13.40;9.40;;;;;;;5.54;71.40;100561.36;105671;1254;69201;-54
2023/04/22 00:29:34;;;;;;;13.00;8.80;;;;;;;5.57;71.30;100559.58;105615;1252;74908;-58
2023/04/22 00:32:36;;;;;;;13.80;8.70;;;;;;;5.56;71.54;100561.50;105627;1251;82187;-53
2023/04/22 00:35:58;;;;;;;;;;;;;;;;;;;;;
2023/04/22 00:39:02;;;;;;;15.60;9.10;;;;;;;5.43;71.58;100558.58;105639;1253;69185;-53
2023/04/22 00:42:32;;;;;;;16.20;8.90;;;;;;;5.38;71.68;100559.15;105861;1251;69074;-54
2023/04/22 00:45:32;;;;;;;;;;;;;;;;;;;;;
2023/04/22 00:48:44;;;;;;;14.60;9.10;;;;;;;5.27;72.08;100557.55;105660;1258;83647;-59
2023/04/22 00:52:09;;;;;;;14.20;8.80;;;;;;;5.25;72.08;100556.39;105565;1256;73778;-55
2023/04/22 00:55:23;;;;;;;11.60;7.50;;;;;;;5.24;72.41;100558.83;105702;1254;69227;-56
2023/04/22 00:58:11;;;;;;;;;;;;;;;;;;;;;
2023/04/22 01:01:17;;;;;;;11.90;8.50;;;;;;;5.29;72.52;100565.34;105660;1256;74901;-57
2023/04/22 01:04:24;;;;;;;;;;;;;;;;;;;;;
2023/04/22 01:07:50;;;;;;;11.30;8.20;;;;;;;5.21;72.46;100561.45;105511;1256;72765;-55
2023/04/22 01:11:21;;;;;;;12.40;8.10;;;;;;;5.13;72.64;100570.73;105511;1262;69128;-53
2023/04/22 01:15:00;;;;;;;14.20;9.20;;;;;;;5.13;73.41;100576.27;105131;1262;69193;-52
2023/04/22 01:18:05;;;;;;;13.40;8.40;;;;;;;5.25;74.47;100579.42;105101;1259;75186;-51
2023/04/22 01:21:01;;;;;;;11.40;8.30;;;;;;;5.34;74.89;100578.62;105160;1260;83384;-55
2023/04/22 01:24:26;;;;;;;;;;;;;;;;;;;;;
2023/04/22 01:27:41;;;;;;;13.00;8.40;;;;;;;5.29;73.79;100581.45;105037;1264;69163;-53
2023/04/22 01:30:35;;;;;;;13.40;7.80;;;;;;;5.25;73.30;100582.20;105106;1257;69093;-58
2023/04/22 01:33:36;;;;;;;10.90;7.30;;;;;;;5.16;72.76;100585.24;105074;1257;74743;-58
2023/04/22 01:36:48;;;;;;;;;;;;;;;;;;;;;
2023/04/22 01:39:57;;;;;;;11.30;7.30;;;;;;;5.01;72.91;100588.36;105173;1260;72000;-53
2023/04/22 01:43:46;;;;;;;14.60;7.60;;;;;;;4.89;72.84;100590.40;105126;1256;69109;-55
2023/04/22 01:46:25;;;;;;;13.40;7.20;;;;;;;4.82;73.18;100587.36;105141;1260;69659;-57
2023/04/22 01:49:50;;;;;;;;;;;;;;;;;;;;;
2023/04/22 01:53:03;;;;;;;11.70;7.80;;;;;;;4.73;73.22;100578.45;105494;1254;81590;-57
2023/04/22 01:56:04;;;;;;;;;;;;;;;;;;;;;
2023/04/22 01:59:33;;;;;;;15.70;7.70;;;;;;;4.61;73.72;100582.03;105518;1256;69188;-55
2023/04/22 02:02:39;;;;;;;13.00;8.30;;;;;;;4.53;73.74;100578.82;105642;1256;69370;-53
2023/04/22 02:05:56;;;;;;;13.50;8.50;;;;;;;4.44;73.81;100576.31;105719;1257;73873;-53
2023/04/22 02:09:35;;;;;;;;;;;;;;;;;;;;;
2023/04/22 02:13:12;;;;;;;13.00;9.00;;;;;;;4.27;74.19;100570.57;104971;1264;73830;-57
2023/04/22 02:16:42;;;;;;;;;;;;;;;;;;;;;
2023/04/22 02:19:48;;;;;;;15.40;9.10;;;;;;;4.15;74.60;100564.09;105044;1270;69263;-52
2023/04/22 02:23:04;;;;;;;14.20;8.30;;;;;;;4.11;74.63;100559.64;105039;1257;75142;-54
2023/04/22 02:26:29;;;;;;;;;;;;;;;;;;;;;
2023/04/22 02:29:42;;;;;;;13.40;9.00;;;;;;;4.01;74.96;100560.58;104893;1262;73783;-51
2023/04/22 02:33:17;;;;;;;12.30;8.50;;;;;;;3.96;75.01;100554.21;105143;1259;69072;-52
2023/04/22 02:36:35;;;;;;;12.90;8.20;;;;;;;3.92;75.06;100554.42;105660;1254;69129;-51
2023/04/22 02:40:07;;;;;;;15.00;8.60;;;;;;;3.88;75.30;100548.92;105596;1257;75169;-54
2023/04/22 02:43:21;;;;;;;13.20;8.60;;;;;;;3.86;75.56;100547.02;105519;1253;83404;-55
2023/04/22 02:46:39;;;;;;;;;;;;;;;3.83;75.69;100545.32;105585;1254;73730;-51
2023/04/22 02:50:07;;;;;;;12.70;7.80;;;;;;;3.79;75.71;100542.58;105807;1255;69268;-55
2023/04/22 02:53:41;;;;;;;13.40;8.20;;;;;;;3.76;76.12;100544.49;105758;1253;69033;-57
2023/04/22 02:57:08;;;;;;;14.00;8.20;;;;;;;3.76;76.40;100539.14;105627;1258;74913;-57
2023/04/22 03:00:36;;;;;;;14.00;8.50;;;;;;;3.73;76.42;100536.05;105668;1258;83496;-54
2023/04/22 03:04:12;;;;;;;;;;;;;;;;;;;;;
2023/04/22 03:07:52;;;;;;;;;;;;;;;;;;;;;
2023/04/22 03:11:03;;;;;;;;;;;;;;;3.59;76.11;100526.98;105666;1253;69201;-57
2023/04/22 03:14:33;;;;;;;13.40;8.20;;;;;;;3.52;76.46;100529.28;105518;1253;74923;-55
2023/04/22 03:18:05;;;;;;;12.40;7.70;;;;;;;3.50;76.71;100527.21;105551;1251;82507;-57
2023/04/22 03:21:40;;;;;;;12.30;7.70;;;;;;;3.48;76.85;100521.53;105527;1254;73817;-55
2023/04/22 03:24:45;;;;;;;16.80;8.60;;;;;;;3.46;76.86;100525.67;105427;1262;69212;-53
2023/04/22 03:28:35;;;;;;;12.00;8.00;;;;;;;3.45;77.02;100523.62;105614;1251;69067;-55
2023/04/22 03:31:42;;;;;;;;;;;;;;;;;;;;;
2023/04/22 03:35:18;;;;;;;13.80;9.30;;;;;;;3.45;77.63;100524.31;105633;1254;83956;-56
2023/04/22 03:38:34;;;;;;;14.40;9.30;;;;;;;3.46;77.47;100521.02;105860;1253;73466;-54
2023/04/22 03:42:11;;;;;;;16.80;9.50;;;;;;;3.46;77.68;100519.98;105884;1257;69189;-51
2023/04/22 03:45:58;;;;;;;;;;;;;;;;;;;;;
2023/04/22 03:52:54;;;;;;;;;;;;;;;;;;;;;
2023/04/22 03:56:26;;;;;;;13.70;8.20;;;;;;;3.46;77.97;100519.98;104999;1261;73954;-52
2023/04/22 04:00:10;;;;;;;11.80;8.00;;;;;;;3.44;78.11;100520.88;105070;1261;69682;-52
2023/04/22 04:03:26;;;;;;;12.50;8.30;;;;;;;3.42;77.91;100520.87;105176;1260;69842;-53
2023/04/22 04:07:10;;;;;;;;;;;;;;;;;;;;;
2023/04/22 04:13:51;;;;;;;13.10;8.60;;;;;;;3.49;78.50;100513.60;105038;1263;72727;-55
2023/04/22 04:17:37;;;;;;;;;;;;;;;;;;;;;
2023/04/22 04:21:06;;;;;;;16.80;10.20;;;;;;;3.58;78.81;100510.06;105230;1263;69434;-53
2023/04/22 04:24:41;;;;;;;19.60;11.70;;;;;;;3.59;78.67;100509.02;105023;1258;74833;-54
2023/04/22 04:28:21;;;;;;;19.10;11.40;;;;;;;3.62;78.79;100508.83;105049;1257;81741;-53
2023/04/22 04:31:43;;;;;;;17.70;11.40;;;;;;;3.68;79.26;100511.04;105518;1251;72744;-54
2023/04/22 04:34:25;;;;;;;21.00;12.30;;;;;;;3.75;79.34;100513.40;105647;1252;70002;-47
2023/04/22 04:37:13;;;;;;;18.50;11.60;;;;;;;3.79;79.48;100513.38;105661;1251;69785;-49
2023/04/22 04:40:17;;;;;;;;;;;;;;;;;;;;;
2023/04/22 04:43:12;;;;;;;;;;;;;;;;;;;;;
2023/04/22 04:45:57;;;;;;;20.80;12.40;;;;;;;4.19;80.54;100517.19;105634;1255;73723;-48
2023/04/22 04:48:45;;;;;;;19.20;11.60;;;;;;;4.27;80.33;100514.17;105648;1251;70086;-49
2023/04/22 04:51:32;;;;;;;18.30;12.30;;;;;;;4.37;80.56;100518.23;105625;1254;69966;-49
2023/04/22 04:54:28;;;;;;;18.90;12.00;;;;;;;4.46;80.62;100523.34;105881;1253;74819;-51
2023/04/22 04:57:02;;;;;;;18.30;12.60;;;;;;;4.57;80.53;100524.09;105726;1254;83226;-50
2023/04/22 04:59:41;;;;;;;19.50;13.00;;;;;;;4.68;80.59;100519.48;105726;1251;72808;-50
2023/04/22 05:02:36;;;;;;;18.20;12.30;;;;;;;4.77;80.44;100516.42;105654;1257;69966;-47
2023/04/22 05:05:21;;;;;;;;;;;;;;;;;;;;;
2023/04/22 05:08:14;;;;;;;21.60;13.10;;;;;;;5.00;80.76;100511.30;105533;1252;75324;-51
2023/04/22 05:11:08;;;;;;;21.20;14.20;;;;;;;5.13;81.02;100514.96;105638;1251;82883;-47
2023/04/22 05:13:40;;;;;;;24.10;15.30;;;;;;;5.30;80.71;100515.23;105786;1251;73933;-49
2023/04/22 05:16:18;;;;;;;;;;;;;;;5.46;80.56;100513.47;105604;1252;70136;-48
2023/04/22 05:18:57;;;;;;;26.00;17.50;;;;;;;5.61;80.30;100518.98;105620;1257;69940;-47
2023/04/22 05:21:55;;;;;;;28.20;17.30;;;;;;;5.73;79.97;100517.58;105721;1256;73809;-48
2023/04/22 05:24:26;;;;;;;28.20;18.50;;;;;;;5.87;79.09;100519.98;105866;1254;83693;-49
2023/04/22 05:27:09;;;;;;;28.20;19.00;;;;;;;5.96;78.96;100522.09;105648;1258;72701;-48
2023/04/22 05:29:51;;;;;;;33.10;20.90;;;;;;;6.07;78.54;100521.75;105752;1251;70146;-51
2023/04/22 05:32:47;;;;;;;30.20;19.60;;;;;;;6.17;78.28;100516.02;105516;1251;69293;-49
2023/04/22 05:35:23;;;;;;;27.10;18.70;;;;;;;6.29;77.95;100517.05;105908;1254;75219;-49
2023/04/22 05:37:56;;;;;;;26.90;18.70;;;;;;;6.39;78.01;100517.05;105772;1254;83662;-48
2023/04/22 05:40:34;;;;;;;26.70;17.60;;;;;;;6.50;77.84;100517.89;105667;1252;73784;-48
2023/04/22 05:43:28;;;;;;;25.60;17.60;;;;;;;6.62;77.86;100512.98;105653;1251;69989;-48
2023/04/22 05:46:13;;;;;;;27.10;17.10;;;;;;;6.72;77.82;100516.60;105632;1252;69908;-48
2023/04/22 05:48:48;;;;;;;25.20;16.80;;;;;;;6.82;77.58;100515.36;105697;1256;75083;-52
2023/04/22 05:51:52;;;;;;;27.50;17.20;;;;;;;6.95;77.16;100517.87;105761;1254;82967;-48
2023/04/22 05:54:28;;;;;;;28.30;16.80;;;;;;;7.09;77.20;100515.51;105706;1257;74021;-50
2023/04/22 05:57:09;;;;;;;26.70;17.90;;;;;;;7.23;76.88;100514.70;105747;1254;69979;-54
2023/04/22 05:59:47;;;;;;;31.10;18.60;;;;;;;7.36;77.22;100512.48;105672;1251;69998;-49
2023/04/22 06:02:39;;;;;;;24.40;17.80;;;;;;;7.51;77.07;100511.30;105647;1257;75030;-47
2023/04/22 06:05:16;;;;;;;26.30;17.30;;;;;;;7.66;76.79;100512.00;105641;1254;83720;-51
2023/04/22 06:07:48;;;;;;;25.30;17.70;;;;;;;7.77;76.48;100509.30;105524;1251;73747;-50
2023/04/22 06:10:30;;;;;;;;;;;;;;;;;;;;;
2023/04/22 06:13:04;;;;;;;28.50;17.70;;;;;;;8.03;76.72;100511.80;105540;1257;69272;-48
2023/04/22 06:15:35;;;;;;;24.60;17.40;;;;;;;8.16;76.58;100513.04;105782;1251;74752;-49
2023/04/22 06:18:21;;;;;;;27.30;18.10;;;;;;;8.28;76.72;100511.86;105724;1251;82605;-49
2023/04/22 06:20:50;;;;;;;24.20;16.40;;;;;;;8.42;76.41;100508.39;105688;1251;71186;-52
2023/04/22 06:23:19;;;;;;;23.30;17.00;;;;;;;8.55;76.14;100508.06;105675;1255;69979;-50
2023/04/22 06:25:51;;;;;;;25.80;16.10;;;;;;;8.68;76.15;100507.17;105660;1251;69909;-50
2023/04/22 06:28:42;;;;;;;23.00;16.00;;;;;;;8.82;76.10;100508.38;105678;1251;74736;-48
2023/04/22 06:31:19;;;;;;;21.10;15.00;;;;;;;8.96;75.42;100504.66;105656;1255;83770;-49
2023/04/22 06:33:49;;;;;;;23.20;15.60;;;;;;;9.09;75.01;100504.63;105998;1254;74033;-49
2023/04/22 06:36:23;;;;;;;28.30;16.50;;;;;;;9.24;74.88;100501.39;105795;1251;69859;-48
2023/04/22 06:38:58;;;;;;;23.50;16.10;;;;;;;9.42;74.73;100502.77;105974;1257;69868;-51
2023/04/22 06:41:43;;;;;;;22.20;16.60;;;;;;;9.60;74.56;100503.08;105721;1251;73837;-50
2023/04/22 06:44:39;;;;;;;24.50;17.70;;;;;;;9.75;74.19;100502.24;105363;1251;82469;-53
2023/04/22 06:47:20;;;;;;;25.70;15.40;;;;;;;9.90;73.64;100503.88;105677;1254;72731;-51
2023/04/22 06:49:56;;;;;;;24.40;16.20;;;;;;;10.02;73.27;100503.64;105619;1257;70513;-54
2023/04/22 06:52:29;;;;;;;22.40;14.80;;;;;;;10.17;73.17;100503.51;105643;1251;69226;-54
2023/04/22 06:55:02;;;;;;;22.80;15.30;;;;;;;10.33;72.57;100502.80;105690;1257;74892;-53
2023/04/22 06:57:33;;;;;;;22.30;14.90;;;;;;;10.50;72.26;100504.85;105755;1257;83149;-50
2023/04/22 07:00:07;;;;;;;21.90;14.20;;;;;;;10.63;71.75;100504.02;106015;1256;73732;-52
2023/04/22 07:02:40;;;;;;;23.80;15.50;;;;;;;10.79;71.41;100499.62;106076;1251;69045;-53
2023/04/22 07:05:12;;;;;;;24.10;16.30;;;;;;;10.94;71.28;100504.66;105774;1257;69227;-51
2023/04/22 07:07:44;;;;;;;22.20;15.20;;;;;;;11.07;70.85;100503.67;105576;1257;74874;-50
2023/04/22 07:10:20;;;;;;;19.90;15.10;;;;;;;11.19;70.24;100503.20;105526;1257;83379;-51
2023/04/22 07:13:16;;;;;;;21.90;14.30;;;;;;;11.32;69.80;100506.21;105617;1253;74180;-54
2023/04/22 07:15:47;;;;;;;19.50;13.50;;;;;;;11.42;69.52;100503.00;105768;1251;69071;-55
2023/04/22 07:18:16;;;;;;;23.10;14.10;;;;;;;11.54;69.36;100504.11;105682;1253;69887;-52
2023/04/22 07:20:45;;;;;;;19.80;13.80;;;;;;;11.68;69.52;100502.00;105915;1251;72869;-53
2023/04/22 07:23:13;;;;;;;21.80;13.80;;;;;;;11.81;69.37;100500.42;105717;1251;83164;-51
2023/04/22 07:25:47;;;;;;;20.50;13.60;;;;;;;11.97;69.42;100502.98;105612;1251;73869;-50
2023/04/22 07:28:18;;;;;;;17.80;12.80;;;;;;;12.14;68.79;100500.17;105648;1251;69172;-51
2023/04/22 07:30:49;;;;;;;17.80;12.40;;;;;;;12.27;68.88;100498.02;105633;1255;70002;-55
2023/04/22 07:33:21;;;;;;;18.60;12.60;;;;;;;12.43;68.71;100499.27;105689;1255;75054;-50
2023/04/22 07:35:59;;;;;;;17.50;12.40;;;;;;;12.61;68.13;100494.79;105617;1255;83213;-53
2023/04/22 07:38:30;;;;;;;15.00;11.10;;;;;;;12.80;67.80;100491.34;105601;1251;72686;-50
2023/04/22 07:41:02;;;;;;;14.20;10.70;;;;;;;12.95;67.27;100490.67;105582;1256;69896;-54
2023/04/22 07:43:33;;;;;;;16.90;11.60;;;;;;;13.11;67.29;100489.40;105532;1251;69126;-53
2023/04/22 07:46:05;;;;;;;18.50;12.50;;;;;;;13.31;66.82;100486.94;105683;1254;73438;-53
2023/04/22 07:48:36;;;;;;;17.60;12.20;;;;;;;13.48;66.13;100490.35;105486;1251;81777;-51
2023/04/22 07:51:05;;;;;;;17.40;11.10;;;;;;;13.56;65.36;100488.73;105579;1251;73788;-53
2023/04/22 07:53:38;;;;;;;14.70;10.90;;;;;;;13.62;64.68;100487.93;105582;1257;69428;-52
2023/04/22 07:56:09;;;;;;;14.70;10.00;;;;;;;13.75;64.77;100489.60;105585;1254;69211;-51
2023/04/22 07:58:41;;;;;;;15.80;10.50;;;;;;;13.87;64.02;100484.23;105624;1251;74813;-54
2023/04/22 08:01:09;;;;;;;13.40;10.40;;;;;;;13.95;63.26;100480.48;105816;1251;83481;-53
2023/04/22 08:03:38;;;;;;;16.80;10.60;;;;;;;14.04;62.92;100479.90;105616;1254;73885;-49
2023/04/22 08:06:09;;;;;;;15.20;10.30;;;;;;;14.15;62.61;100479.52;105892;1250;69131;-57
2023/04/22 08:08:47;;;;;;;13.70;9.10;;;;;;;14.30;62.79;100478.21;105500;1254;69205;-58
2023/04/22 08:11:21;;;;;;;14.00;8.60;;;;;;;14.54;62.63;100474.16;105626;1251;74942;-59
2023/04/22 08:13:52;;;;;;;14.50;8.50;;;;;;;14.81;62.50;100471.89;105682;1251;83015;-56
2023/04/22 08:16:23;;;;;;;11.40;7.50;;;;;;;15.03;61.97;100471.57;105590;1255;74011;-54
2023/04/22 08:18:55;;;;;;;11.70;8.40;;;;;;;15.22;61.19;100474.21;105599;1251;69089;-58
2023/04/22 08:21:27;;;;;;;12.10;7.60;;;;;;;15.41;60.65;100471.80;105574;1254;69160;-58
2023/04/22 08:23:58;;;;;;;12.20;6.80;;;;;;;15.58;60.05;100473.30;105570;1251;74970;-56
2023/04/22 08:26:27;;;;;;;13.40;7.00;;;;;;;15.81;59.42;100473.76;105621;1252;82475;-56
2023/04/22 08:28:59;;;;;;;10.40;7.30;;;;;;;16.01;58.94;100472.42;105584;1251;73859;-57
2023/04/22 08:31:30;;;;;;;12.60;7.00;;;;;;;16.16;57.88;100467.29;105787;1254;69124;-56
2023/04/22 08:33:59;;;;;;;11.60;7.40;;;;;;;16.26;57.81;100470.27;105609;1254;69681;-58
2023/04/22 08:36:28;;;;;;;9.70;7.00;;;;;;;16.46;57.93;100466.22;105602;1251;74954;-58
2023/04/22 08:38:56;;;;;;;12.00;7.10;;;;;;;16.65;57.57;100461.19;105508;1257;82610;-56
2023/04/22 08:41:28;;;;;;;11.00;7.20;;;;;;;16.84;57.15;100460.40;105585;1252;73804;-60
2023/04/22 08:43:56;;;;;;;11.20;7.20;;;;;;;16.98;56.32;100457.92;105516;1252;69197;-57
2023/04/22 08:46:25;;;;;;;10.00;7.80;;;;;;;17.13;56.28;100457.33;105691;1254;69170;-60
2023/04/22 08:48:55;;;;;;;14.10;7.60;;;;;;;17.31;55.45;100457.64;105516;1257;75263;-56
2023/04/22 08:51:24;;;;;;;8.40;6.60;;;;;;;17.41;54.92;100457.48;105819;1254;83885;-58
2023/04/22 08:53:53;;;;;;;12.00;6.60;;;;;;;17.54;54.61;100456.86;105540;1251;73692;-57
2023/04/22 08:56:21;;;;;;;8.50;5.90;;;;;;;17.72;54.03;100454.98;105539;1254;69212;-55
2023/04/22 08:58:53;;;;;;;8.20;5.60;;;;;;;17.85;53.05;100454.30;105592;1254;69189;-60
2023/04/22 09:01:22;;;;;;;8.20;4.80;;;;;;;17.97;52.45;100451.87;105836;1254;74352;-56
2023/04/22 09:03:51;;;;;;;6.80;4.20;;;;;;;18.15;51.53;100453.52;105643;1254;82918;-63
2023/04/22 09:06:20;;;;;;;7.30;6.10;;;;;;;18.28;51.00;100453.19;105546;1251;73760;-59
2023/04/22 09:08:49;;;;;;;10.80;5.30;;;;;;;18.29;50.15;100456.29;105520;1251;69095;-58
2023/04/22 09:11:17;;;;;;;5.50;4.10;;;;;;;18.33;49.51;100456.57;105612;1257;69193;-57
2023/04/22 09:13:46;;;;;;;5.20;4.20;;;;;;;18.52;48.83;100453.30;105585;1251;74040;-57
2023/04/22 09:16:14;;;;;;;8.00;3.90;;;;;;;18.71;47.82;100453.91;105550;1254;83473;-59
2023/04/22 09:18:46;;;;;;;4.90;4.10;;;;;;;18.84;47.32;100450.55;105583;1251;73361;-60
2023/04/22 09:21:14;;;;;;;6.30;3.80;;;;;;;18.98;46.80;100445.69;105602;1251;69309;-60
2023/04/22 09:23:48;;;;;;;5.80;4.10;;;;;;;19.14;46.45;100446.09;105849;1254;69160;-59
2023/04/22 09:26:21;;;;;;;7.00;4.00;;;;;;;19.34;46.04;100445.58;105652;1251;75232;-58
2023/04/22 09:28:50;;;;;;;8.20;4.30;;;;;;;19.40;44.89;100441.56;105608;1254;83959;-59
2023/04/22 09:31:20;;;;;;;7.60;4.60;;;;;;;19.48;45.05;100440.30;105679;1254;72062;-57
2023/04/22 09:33:57;;;;;;;5.20;3.80;;;;;;;19.56;44.48;100440.36;105691;1251;69233;-57
2023/04/22 09:36:33;;;;;;;6.30;4.30;;;;;;;19.67;44.37;100441.01;105666;1251;69192;-57
2023/04/22 09:39:03;;;;;;;6.50;4.30;;;;;;;19.87;44.34;100441.49;105660;1251;73935;-61
2023/04/22 09:41:35;;;;;;;7.40;4.70;;;;;;;20.00;43.71;100439.42;105612;1251;82585;-59
2023/04/22 09:44:08;;;;;;;5.60;4.20;;;;;;;20.09;42.94;100438.77;105717;1251;73875;-57
2023/04/22 09:46:36;;;;;;;8.20;4.30;;;;;;;20.14;42.43;100436.73;105613;1251;69090;-57
2023/04/22 09:49:04;;;;;;;7.00;4.20;;;;;;;20.18;42.15;100433.27;105590;1254;69209;-59
2023/04/22 09:51:33;;;;;;;6.20;4.20;;;;;;;20.34;41.67;100426.23;105665;1254;74320;-60
2023/04/22 09:54:09;;;;;;;4.30;3.90;;;;;;;20.41;41.38;100427.44;105627;1252;83732;-61
2023/04/22 09:56:48;;;;;;;6.20;4.20;;;;;;;20.46;40.81;100424.86;105772;1251;72799;-59
2023/04/22 09:59:23;;;;;;;6.80;3.80;;;;;;;20.56;40.06;100426.98;105595;1251;69187;-57
2023/04/22 10:01:55;;;;;;;7.30;4.60;;;;;;;20.66;39.43;100426.20;105586;1251;69122;-57
2023/04/22 10:04:24;;;;;;;7.00;4.60;;;;;;;20.77;39.57;100424.27;105632;1254;73620;-56
2023/04/22 10:06:53;;;;;;;6.80;4.50;;;;;;;20.88;39.34;100420.54;105688;1254;83469;-58
2023/04/22 10:09:23;;;;;;;6.30;5.00;;;;;;;21.04;39.17;100417.82;105681;1251;73476;-60
2023/04/22 10:11:53;;;;;;;6.60;4.40;;;;;;;21.25;39.02;100417.57;105607;1251;69675;-61
2023/04/22 10:14:21;;;;;;;5.90;4.80;;;;;;;21.53;39.53;100416.37;105629;1251;69257;-59
2023/04/22 10:16:56;;;;;;;7.80;4.90;;;;;;;21.95;39.81;100412.30;105694;1254;74660;-59
2023/04/22 10:19:26;;;;;;;7.10;4.50;;;;;;;22.26;39.18;100407.60;105626;1251;82602;-60
2023/04/22 10:22:00;;;;;;;7.10;4.80;;;;;;;22.47;38.95;100404.36;105518;1256;73855;-57
2023/04/22 10:24:34;;;;;;;6.40;4.50;;;;;;;22.69;38.63;100411.69;105616;1251;69082;-60
2023/04/22 10:27:07;;;;;;;7.40;4.40;;;;;;;22.91;38.02;100406.89;105579;1254;69275;-57
2023/04/22 10:29:41;;;;;;;8.90;5.10;;;;;;;23.13;37.65;100408.67;105662;1251;75047;-58
2023/04/22 10:32:10;;;;;;;5.30;4.60;;;;;;;23.27;37.11;100406.16;105610;1254;83264;-59
2023/04/22 10:34:38;;;;;;;5.90;4.50;;;;;;;23.43;37.04;100398.00;105625;1251;73412;-62
2023/04/22 10:37:10;;;;;;;5.40;4.50;;;;;;;23.64;36.42;100399.94;105601;1251;69180;-60
2023/04/22 10:39:42;;;;;;;10.00;4.90;;;;;;;23.76;36.14;100393.35;105653;1251;69201;-58
2023/04/22 10:42:14;;;;;;;5.10;4.30;;;;;;;23.97;36.01;100389.63;105620;1254;74845;-61
2023/04/22 10:44:47;;;;;;;6.30;4.60;;;;;;;24.10;35.45;100387.71;105833;1252;82491;-58
2023/04/22 10:47:29;;;;;;;5.60;4.30;;;;;;;24.16;35.17;100387.84;105664;1251;73946;-58
2023/04/22 10:50:16;;;;;;;6.30;4.10;;;;;;;24.38;35.13;100379.16;105609;1251;69230;-57
2023/04/22 10:52:50;;;;;;;6.00;4.60;;;;;;;24.70;35.02;100375.08;105628;1251;69182;-61
2023/04/22 10:55:20;;;;;;;5.40;4.40;;;;;;;24.85;34.91;100369.42;105615;1251;73385;-58
2023/04/22 10:57:50;;;;;;;5.70;4.00;;;;;;;25.09;34.90;100361.58;105643;1251;83577;-59
2023/04/22 11:00:18;;;;;;;;;;;;;;;25.20;34.03;100367.48;105734;1251;72555;-57
2023/04/22 11:03:10;;;;;;;5.80;3.80;;;;;;;25.27;33.58;100366.11;105628;1251;69218;-59
2023/04/22 11:05:39;;;;;;;5.30;4.10;;;;;;;25.33;33.33;100361.38;105842;1254;69191;-58
2023/04/22 11:08:19;;;;;;;4.40;3.60;;;;;;;25.33;32.93;100358.13;105726;1254;74114;-57
2023/04/22 11:10:49;;;;;;;7.70;4.10;;;;;;;25.25;32.53;100351.10;105629;1251;82372;-57
2023/04/22 11:13:20;;;;;;;5.10;3.80;;;;;;;25.31;32.58;100353.54;105615;1254;72813;-61
2023/04/22 11:15:50;;;;;;;5.70;3.80;;;;;;;25.51;32.50;100354.39;105733;1251;69327;-59
2023/04/22 11:18:23;;;;;;;6.50;3.60;;;;;;;25.60;31.80;100348.86;105644;1251;69864;-58
2023/04/22 11:20:52;;;;;;;7.10;3.90;;;;;;;25.75;31.73;100342.58;105723;1254;73964;-62
2023/04/22 11:23:26;;;;;;;7.50;4.20;;;;;;;25.97;31.92;100335.06;105698;1251;81671;-58
2023/04/22 11:26:00;;;;;;;4.90;3.60;;;;;;;26.36;32.32;100332.23;105725;1254;72787;-57
2023/04/22 11:28:28;;;;;;;5.60;3.70;;;;;;;26.50;31.43;100336.54;105736;1251;69172;-60
2023/04/22 11:31:06;;;;;;;4.30;3.50;;;;;;;26.51;30.91;100334.33;105914;1249;69023;-60
2023/04/22 11:33:37;;;;;;;3.70;3.00;;;;;;;26.58;30.89;100325.51;105869;1251;73898;-61
2023/04/22 11:36:10;;;;;;;9.50;4.00;;;;;;;26.84;31.07;100318.59;105580;1254;185614;-59
2023/04/22 11:38:38;;;;;;;6.70;3.70;;;;;;;26.99;31.08;100315.90;105939;1254;73769;-59
2023/04/22 11:41:07;;;;;;;5.30;3.20;;;;;;;27.27;30.55;100318.09;105684;1253;69147;-64
2023/04/22 11:43:45;;;;;;;6.70;3.40;;;;;;;27.27;29.82;100317.79;106036;1253;69091;-58
2023/04/22 11:46:13;;;;;;;4.60;3.40;;;;;;;27.21;29.51;100318.05;105991;1253;73924;-63
2023/04/22 11:48:42;;;;;;;6.50;3.30;;;;;;;27.26;29.49;100316.21;105691;1251;82411;-63
2023/04/22 11:51:11;;;;;;;7.70;3.60;;;;;;;27.35;28.96;100311.86;105639;1251;73854;-58
2023/04/22 11:53:49;;;;;;;4.80;3.60;;;;;;;27.41;28.60;100307.46;105635;1250;69214;-59
2023/04/22 11:56:19;;;;;;;4.00;3.60;;;;;;;27.43;28.20;100307.79;105608;1251;69121;-57
2023/04/22 11:58:48;;;;;;;5.00;3.20;;;;;;;27.41;28.34;100299.86;105633;1254;74698;-59
2023/04/22 12:01:16;;;;;;;5.50;3.60;;;;;;;27.48;28.31;100304.33;105590;1251;82575;-58
2023/04/22 12:03:44;;;;;;;4.50;3.90;;;;;;;27.52;28.04;100297.63;105660;1251;72731;-59
2023/04/22 12:06:15;;;;;;;4.00;3.60;;;;;;;27.62;27.82;100294.94;105725;1251;69216;-60
2023/04/22 12:08:45;;;;;;;5.40;3.90;;;;;;;27.67;27.82;100300.62;105761;1251;69173;-58
2023/04/22 12:11:13;;;;;;;5.90;4.20;;;;;;;27.74;27.86;100297.27;105665;1254;75088;-58
2023/04/22 12:13:45;;;;;;;7.10;3.80;;;;;;;27.78;27.46;100299.77;105773;1251;83095;-60
2023/04/22 12:16:16;;;;;;;5.60;3.90;;;;;;;27.73;27.13;100300.27;105827;1251;73328;-59
2023/04/22 12:18:54;;;;;;;4.70;3.30;;;;;;;27.78;27.16;100294.52;105704;1254;69079;-59
2023/04/22 12:21:24;;;;;;;4.50;3.30;;;;;;;27.86;27.02;100293.89;105756;1251;69191;-59
2023/04/22 12:24:04;;;;;;;6.70;4.20;;;;;;;27.93;26.90;100291.77;105657;1251;74902;-57
2023/04/22 12:26:33;;;;;;;6.00;3.90;;;;;;;27.90;26.57;100293.58;105640;1251;82631;-60
2023/04/22 12:29:01;;;;;;;6.50;4.20;;;;;;;27.85;26.68;100299.46;105687;1251;74124;-62
2023/04/22 12:31:29;;;;;;;5.30;4.50;;;;;;;27.73;26.52;100294.00;105711;1251;69210;-59
2023/04/22 12:33:59;;;;;;;4.80;4.20;;;;;;;27.73;26.21;100288.95;105678;1251;69227;-57
2023/04/22 12:36:27;;;;;;;5.20;4.00;;;;;;;27.74;26.48;100283.30;105685;1254;74898;-59
2023/04/22 12:38:56;;;;;;;4.30;3.80;;;;;;;27.94;26.65;100277.90;105642;1253;83773;-61
2023/04/22 12:41:24;;;;;;;4.80;4.30;;;;;;;28.22;26.34;100272.75;105551;1251;73758;-59
2023/04/22 12:43:54;;;;;;;6.70;3.60;;;;;;;28.42;26.59;100272.40;105655;1251;69188;-56
2023/04/22 12:46:22;;;;;;;5.40;3.90;;;;;;;28.59;26.27;100266.84;105629;1254;69458;-58
2023/04/22 12:48:50;;;;;;;9.30;4.20;;;;;;;28.67;26.27;100265.08;105644;1253;74293;-57
2023/04/22 12:51:18;;;;;;;4.00;3.60;;;;;;;28.61;25.95;100267.39;105592;1251;82492;-58
2023/04/22 12:53:46;;;;;;;4.20;3.40;;;;;;;28.64;25.95;100260.91;105638;1254;73839;-57
2023/04/22 12:56:15;;;;;;;4.50;3.70;;;;;;;28.82;26.03;100261.17;105632;1253;69160;-57
2023/04/22 12:58:43;;;;;;;5.00;3.40;;;;;;;28.99;25.78;100258.10;105627;1254;69175;-57
2023/04/22 13:01:11;;;;;;;5.40;3.50;;;;;;;29.00;25.52;100255.87;105699;1253;73883;-58
2023/04/22 13:03:40;;;;;;;4.50;3.50;;;;;;;28.79;25.44;100253.81;105647;1253;83165;-59
2023/04/22 13:06:08;;;;;;;5.00;3.40;;;;;;;28.67;25.57;100249.53;105775;1252;72765;-58
2023/04/22 13:08:36;;;;;;;6.00;3.60;;;;;;;28.62;25.42;100247.18;105644;1251;69234;-59
2023/04/22 13:11:05;;;;;;;5.20;3.20;;;;;;;28.57;25.63;100245.52;105654;1252;69038;-58
2023/04/22 13:13:33;;;;;;;6.80;3.60;;;;;;;28.63;25.63;100246.84;105720;1254;75023;-57
2023/04/22 13:16:01;;;;;;;4.80;3.30;;;;;;;28.85;25.44;100244.50;105665;1254;82540;-58
2023/04/22 13:18:29;;;;;;;3.40;3.10;;;;;;;29.06;24.71;100238.90;105747;1251;73752;-57
2023/04/22 13:20:59;;;;;;;4.60;3.70;;;;;;;29.24;24.57;100232.92;105663;1250;69068;-58
2023/04/22 13:23:27;;;;;;;6.80;3.60;;;;;;;29.41;24.30;100230.20;106050;1252;69255;-58